sensor_id;sensor_type;location;lat;lon;timestamp;P1;durP1;ratioP1;P2;durP2;ratioP2
49828;SDS011;35723;51.194;5.112;2023-03-31T00:00:32;17.50;;;2.63;;
49828;SDS011;35723;51.194;5.112;2023-03-31T00:02:57;18.35;;;2.45;;
49828;SDS011;35723;51.194;5.112;2023-03-31T00:05:23;13.45;;;2.70;;
49828;SDS011;35723;51.194;5.112;2023-03-31T00:07:53;12.65;;;2.65;;
49828;SDS011;35723;51.194;5.112;2023-03-31T00:10:25;16.13;;;2.70;;
49828;SDS011;35723;51.194;5.112;2023-03-31T00:12:51;15.55;;;2.70;;
49828;SDS011;35723;51.194;5.112;2023-03-31T00:15:18;16.63;;;2.63;;
49828;SDS011;35723;51.194;5.112;2023-03-31T00:17:44;14.38;;;2.40;;
49828;SDS011;35723;51.194;5.112;2023-03-31T00:20:11;16.52;;;2.33;;
49828;SDS011;35723;51.194;5.112;2023-03-31T00:22:37;15.52;;;2.58;;
49828;SDS011;35723;51.194;5.112;2023-03-31T00:27:42;13.10;;;2.50;;
49828;SDS011;35723;51.194;5.112;2023-03-31T00:30:10;18.23;;;2.90;;
49828;SDS011;35723;51.194;5.112;2023-03-31T00:32:37;17.17;;;3.53;;
49828;SDS011;35723;51.194;5.112;2023-03-31T00:35:03;18.63;;;2.83;;
49828;SDS011;35723;51.194;5.112;2023-03-31T00:37:29;16.23;;;2.47;;
49828;SDS011;35723;51.194;5.112;2023-03-31T00:39:55;12.88;;;2.58;;
49828;SDS011;35723;51.194;5.112;2023-03-31T00:42:21;16.10;;;2.80;;
49828;SDS011;35723;51.194;5.112;2023-03-31T00:48:00;16.75;;;2.80;;
49828;SDS011;35723;51.194;5.112;2023-03-31T00:50:34;18.25;;;2.60;;
49828;SDS011;35723;51.194;5.112;2023-03-31T00:53:13;16.45;;;2.83;;
49828;SDS011;35723;51.194;5.112;2023-03-31T00:55:45;18.60;;;2.88;;
49828;SDS011;35723;51.194;5.112;2023-03-31T00:58:15;16.48;;;3.05;;
49828;SDS011;35723;51.194;5.112;2023-03-31T01:00:44;12.65;;;2.47;;
49828;SDS011;35723;51.194;5.112;2023-03-31T01:03:12;20.55;;;3.22;;
49828;SDS011;35723;51.194;5.112;2023-03-31T01:05:39;17.50;;;2.80;;
49828;SDS011;35723;51.194;5.112;2023-03-31T01:08:09;18.77;;;3.10;;
49828;SDS011;35723;51.194;5.112;2023-03-31T01:10:38;19.13;;;3.45;;
49828;SDS011;35723;51.194;5.112;2023-03-31T01:13:08;18.55;;;3.10;;
49828;SDS011;35723;51.194;5.112;2023-03-31T01:15:35;18.55;;;2.92;;
49828;SDS011;35723;51.194;5.112;2023-03-31T01:18:02;20.48;;;3.30;;
49828;SDS011;35723;51.194;5.112;2023-03-31T01:28:39;28.63;;;4.32;;
49828;SDS011;35723;51.194;5.112;2023-03-31T01:40:19;22.13;;;3.60;;
49828;SDS011;35723;51.194;5.112;2023-03-31T01:42:59;25.90;;;3.55;;
49828;SDS011;35723;51.194;5.112;2023-03-31T01:48:20;24.77;;;3.75;;
49828;SDS011;35723;51.194;5.112;2023-03-31T01:50:54;22.75;;;3.17;;
49828;SDS011;35723;51.194;5.112;2023-03-31T01:53:27;19.58;;;3.25;;
49828;SDS011;35723;51.194;5.112;2023-03-31T01:56:36;20.67;;;3.00;;
49828;SDS011;35723;51.194;5.112;2023-03-31T01:59:11;19.67;;;2.70;;
49828;SDS011;35723;51.194;5.112;2023-03-31T02:01:50;18.50;;;3.10;;
49828;SDS011;35723;51.194;5.112;2023-03-31T02:04:30;21.90;;;3.10;;
49828;SDS011;35723;51.194;5.112;2023-03-31T02:07:06;24.17;;;4.00;;
49828;SDS011;35723;51.194;5.112;2023-03-31T02:09:37;23.65;;;3.65;;
49828;SDS011;35723;51.194;5.112;2023-03-31T02:12:07;22.08;;;3.47;;
49828;SDS011;35723;51.194;5.112;2023-03-31T02:14:36;22.60;;;3.25;;
49828;SDS011;35723;51.194;5.112;2023-03-31T02:17:05;20.67;;;3.92;;
49828;SDS011;35723;51.194;5.112;2023-03-31T02:19:37;20.05;;;3.65;;
49828;SDS011;35723;51.194;5.112;2023-03-31T02:22:05;23.60;;;3.88;;
49828;SDS011;35723;51.194;5.112;2023-03-31T02:24:33;20.15;;;3.38;;
49828;SDS011;35723;51.194;5.112;2023-03-31T02:27:05;23.00;;;3.65;;
49828;SDS011;35723;51.194;5.112;2023-03-31T02:29:45;17.30;;;3.20;;
49828;SDS011;35723;51.194;5.112;2023-03-31T02:32:15;18.00;;;2.97;;
49828;SDS011;35723;51.194;5.112;2023-03-31T02:34:42;21.58;;;3.50;;
49828;SDS011;35723;51.194;5.112;2023-03-31T02:37:08;21.58;;;3.28;;
49828;SDS011;35723;51.194;5.112;2023-03-31T02:39:34;19.38;;;2.80;;
49828;SDS011;35723;51.194;5.112;2023-03-31T02:42:03;20.35;;;3.08;;
49828;SDS011;35723;51.194;5.112;2023-03-31T02:44:40;14.88;;;2.90;;
49828;SDS011;35723;51.194;5.112;2023-03-31T02:47:10;16.40;;;2.53;;
49828;SDS011;35723;51.194;5.112;2023-03-31T02:49:39;19.58;;;2.72;;
49828;SDS011;35723;51.194;5.112;2023-03-31T03:17:34;11.95;;;2.35;;
49828;SDS011;35723;51.194;5.112;2023-03-31T03:20:09;9.35;;;1.98;;
49828;SDS011;35723;51.194;5.112;2023-03-31T03:22:36;17.73;;;2.40;;
49828;SDS011;35723;51.194;5.112;2023-03-31T03:25:04;17.83;;;2.78;;
49828;SDS011;35723;51.194;5.112;2023-03-31T03:27:31;15.52;;;2.08;;
49828;SDS011;35723;51.194;5.112;2023-03-31T03:29:56;15.35;;;2.15;;
49828;SDS011;35723;51.194;5.112;2023-03-31T03:32:22;11.25;;;1.92;;
49828;SDS011;35723;51.194;5.112;2023-03-31T03:34:48;16.05;;;2.65;;
49828;SDS011;35723;51.194;5.112;2023-03-31T03:37:14;13.30;;;1.95;;
49828;SDS011;35723;51.194;5.112;2023-03-31T03:39:40;11.25;;;1.90;;
49828;SDS011;35723;51.194;5.112;2023-03-31T03:42:05;12.70;;;2.13;;
49828;SDS011;35723;51.194;5.112;2023-03-31T03:44:31;15.55;;;2.20;;
49828;SDS011;35723;51.194;5.112;2023-03-31T03:46:56;15.15;;;2.30;;
49828;SDS011;35723;51.194;5.112;2023-03-31T03:49:22;11.82;;;1.85;;
49828;SDS011;35723;51.194;5.112;2023-03-31T03:51:48;14.57;;;2.67;;
49828;SDS011;35723;51.194;5.112;2023-03-31T03:54:13;13.10;;;2.10;;
49828;SDS011;35723;51.194;5.112;2023-03-31T03:56:39;15.45;;;2.05;;
49828;SDS011;35723;51.194;5.112;2023-03-31T03:59:05;13.13;;;2.30;;
49828;SDS011;35723;51.194;5.112;2023-03-31T04:01:31;14.25;;;2.30;;
49828;SDS011;35723;51.194;5.112;2023-03-31T04:03:56;12.32;;;2.13;;
49828;SDS011;35723;51.194;5.112;2023-03-31T04:06:22;13.35;;;2.20;;
49828;SDS011;35723;51.194;5.112;2023-03-31T04:08:48;15.07;;;2.47;;
49828;SDS011;35723;51.194;5.112;2023-03-31T04:11:14;10.98;;;2.10;;
49828;SDS011;35723;51.194;5.112;2023-03-31T04:13:42;12.95;;;2.20;;
49828;SDS011;35723;51.194;5.112;2023-03-31T04:16:08;14.73;;;2.15;;
49828;SDS011;35723;51.194;5.112;2023-03-31T04:18:34;10.88;;;2.38;;
49828;SDS011;35723;51.194;5.112;2023-03-31T04:21:01;16.52;;;2.72;;
49828;SDS011;35723;51.194;5.112;2023-03-31T04:23:28;13.45;;;2.53;;
49828;SDS011;35723;51.194;5.112;2023-03-31T04:25:58;11.27;;;2.00;;
49828;SDS011;35723;51.194;5.112;2023-03-31T04:28:24;10.40;;;1.80;;
49828;SDS011;35723;51.194;5.112;2023-03-31T04:30:59;15.00;;;2.20;;
49828;SDS011;35723;51.194;5.112;2023-03-31T04:33:26;13.57;;;1.88;;
49828;SDS011;35723;51.194;5.112;2023-03-31T04:35:52;12.57;;;1.90;;
49828;SDS011;35723;51.194;5.112;2023-03-31T04:38:18;14.50;;;2.30;;
49828;SDS011;35723;51.194;5.112;2023-03-31T04:40:51;11.05;;;2.00;;
49828;SDS011;35723;51.194;5.112;2023-03-31T04:43:18;10.75;;;1.80;;
49828;SDS011;35723;51.194;5.112;2023-03-31T04:45:45;10.55;;;1.90;;
49828;SDS011;35723;51.194;5.112;2023-03-31T04:48:11;16.80;;;2.63;;
49828;SDS011;35723;51.194;5.112;2023-03-31T04:50:37;12.85;;;2.20;;
49828;SDS011;35723;51.194;5.112;2023-03-31T04:53:03;10.80;;;1.80;;
49828;SDS011;35723;51.194;5.112;2023-03-31T04:55:29;12.45;;;2.10;;
49828;SDS011;35723;51.194;5.112;2023-03-31T04:57:55;15.57;;;2.20;;
49828;SDS011;35723;51.194;5.112;2023-03-31T05:00:21;9.40;;;1.70;;
49828;SDS011;35723;51.194;5.112;2023-03-31T05:02:47;9.32;;;1.85;;
49828;SDS011;35723;51.194;5.112;2023-03-31T05:05:13;11.50;;;1.70;;
49828;SDS011;35723;51.194;5.112;2023-03-31T05:07:39;9.00;;;1.98;;
49828;SDS011;35723;51.194;5.112;2023-03-31T05:10:05;10.38;;;1.92;;
49828;SDS011;35723;51.194;5.112;2023-03-31T05:12:35;15.05;;;2.13;;
49828;SDS011;35723;51.194;5.112;2023-03-31T05:15:01;15.13;;;2.40;;
49828;SDS011;35723;51.194;5.112;2023-03-31T05:17:29;14.32;;;1.90;;
49828;SDS011;35723;51.194;5.112;2023-03-31T05:19:56;13.07;;;2.17;;
49828;SDS011;35723;51.194;5.112;2023-03-31T05:22:22;12.73;;;2.53;;
49828;SDS011;35723;51.194;5.112;2023-03-31T05:24:49;11.02;;;1.90;;
49828;SDS011;35723;51.194;5.112;2023-03-31T05:27:14;12.85;;;2.13;;
49828;SDS011;35723;51.194;5.112;2023-03-31T05:29:40;13.18;;;2.10;;
49828;SDS011;35723;51.194;5.112;2023-03-31T05:32:06;10.45;;;2.05;;
49828;SDS011;35723;51.194;5.112;2023-03-31T05:34:31;10.57;;;2.20;;
49828;SDS011;35723;51.194;5.112;2023-03-31T05:36:57;15.25;;;2.40;;
49828;SDS011;35723;51.194;5.112;2023-03-31T05:39:23;13.27;;;2.22;;
49828;SDS011;35723;51.194;5.112;2023-03-31T05:41:49;13.82;;;2.33;;
49828;SDS011;35723;51.194;5.112;2023-03-31T05:44:14;17.65;;;2.65;;
49828;SDS011;35723;51.194;5.112;2023-03-31T05:46:40;9.52;;;2.17;;
49828;SDS011;35723;51.194;5.112;2023-03-31T05:49:06;13.88;;;2.33;;
49828;SDS011;35723;51.194;5.112;2023-03-31T05:51:32;13.15;;;2.60;;
49828;SDS011;35723;51.194;5.112;2023-03-31T05:53:58;15.00;;;2.30;;
49828;SDS011;35723;51.194;5.112;2023-03-31T05:56:24;16.45;;;2.50;;
49828;SDS011;35723;51.194;5.112;2023-03-31T05:58:51;17.88;;;2.80;;
49828;SDS011;35723;51.194;5.112;2023-03-31T06:01:17;17.35;;;2.92;;
49828;SDS011;35723;51.194;5.112;2023-03-31T06:03:47;16.00;;;3.10;;
49828;SDS011;35723;51.194;5.112;2023-03-31T06:06:14;17.90;;;2.95;;
49828;SDS011;35723;51.194;5.112;2023-03-31T06:08:44;16.63;;;2.65;;
49828;SDS011;35723;51.194;5.112;2023-03-31T06:11:12;15.00;;;2.55;;
49828;SDS011;35723;51.194;5.112;2023-03-31T06:13:39;15.18;;;2.95;;
49828;SDS011;35723;51.194;5.112;2023-03-31T06:16:06;18.88;;;2.97;;
49828;SDS011;35723;51.194;5.112;2023-03-31T06:18:32;17.23;;;3.40;;
49828;SDS011;35723;51.194;5.112;2023-03-31T06:20:59;15.35;;;2.80;;
49828;SDS011;35723;51.194;5.112;2023-03-31T06:23:25;22.77;;;3.35;;
49828;SDS011;35723;51.194;5.112;2023-03-31T06:25:51;22.45;;;3.40;;
49828;SDS011;35723;51.194;5.112;2023-03-31T06:28:18;15.50;;;2.70;;
49828;SDS011;35723;51.194;5.112;2023-03-31T06:30:45;15.45;;;3.03;;
49828;SDS011;35723;51.194;5.112;2023-03-31T06:33:11;15.48;;;2.97;;
49828;SDS011;35723;51.194;5.112;2023-03-31T06:35:37;17.50;;;3.35;;
49828;SDS011;35723;51.194;5.112;2023-03-31T06:38:04;24.45;;;3.60;;
49828;SDS011;35723;51.194;5.112;2023-03-31T06:40:30;21.50;;;3.47;;
49828;SDS011;35723;51.194;5.112;2023-03-31T06:42:56;15.85;;;3.20;;
49828;SDS011;35723;51.194;5.112;2023-03-31T06:45:22;20.92;;;3.25;;
49828;SDS011;35723;51.194;5.112;2023-03-31T06:47:47;19.52;;;3.10;;
49828;SDS011;35723;51.194;5.112;2023-03-31T06:50:13;24.60;;;4.03;;
49828;SDS011;35723;51.194;5.112;2023-03-31T06:52:38;21.80;;;3.60;;
49828;SDS011;35723;51.194;5.112;2023-03-31T06:55:07;17.00;;;3.35;;
49828;SDS011;35723;51.194;5.112;2023-03-31T06:57:33;20.85;;;3.42;;
49828;SDS011;35723;51.194;5.112;2023-03-31T07:00:00;21.73;;;3.40;;
49828;SDS011;35723;51.194;5.112;2023-03-31T07:02:27;20.13;;;3.30;;
49828;SDS011;35723;51.194;5.112;2023-03-31T07:04:52;18.30;;;3.70;;
49828;SDS011;35723;51.194;5.112;2023-03-31T07:07:18;19.25;;;3.30;;
49828;SDS011;35723;51.194;5.112;2023-03-31T07:09:43;24.83;;;4.28;;
49828;SDS011;35723;51.194;5.112;2023-03-31T07:12:09;23.30;;;3.92;;
49828;SDS011;35723;51.194;5.112;2023-03-31T07:14:35;20.75;;;3.35;;
49828;SDS011;35723;51.194;5.112;2023-03-31T07:17:01;24.33;;;4.15;;
49828;SDS011;35723;51.194;5.112;2023-03-31T07:19:27;27.92;;;3.75;;
49828;SDS011;35723;51.194;5.112;2023-03-31T07:21:53;19.75;;;3.30;;
49828;SDS011;35723;51.194;5.112;2023-03-31T07:24:20;21.35;;;3.38;;
49828;SDS011;35723;51.194;5.112;2023-03-31T07:26:46;24.90;;;4.43;;
49828;SDS011;35723;51.194;5.112;2023-03-31T07:29:12;18.45;;;3.47;;
49828;SDS011;35723;51.194;5.112;2023-03-31T07:31:38;15.75;;;3.13;;
49828;SDS011;35723;51.194;5.112;2023-03-31T07:34:03;27.70;;;3.75;;
49828;SDS011;35723;51.194;5.112;2023-03-31T07:36:29;37.30;;;5.25;;
49828;SDS011;35723;51.194;5.112;2023-03-31T07:38:55;23.60;;;4.05;;
49828;SDS011;35723;51.194;5.112;2023-03-31T07:41:21;19.13;;;3.40;;
49828;SDS011;35723;51.194;5.112;2023-03-31T07:43:48;30.85;;;4.43;;
49828;SDS011;35723;51.194;5.112;2023-03-31T07:46:25;21.33;;;4.10;;
49828;SDS011;35723;51.194;5.112;2023-03-31T07:48:52;23.98;;;3.70;;
49828;SDS011;35723;51.194;5.112;2023-03-31T07:51:19;24.23;;;3.40;;
49828;SDS011;35723;51.194;5.112;2023-03-31T07:53:48;25.20;;;4.10;;
49828;SDS011;35723;51.194;5.112;2023-03-31T07:56:16;22.15;;;4.00;;
49828;SDS011;35723;51.194;5.112;2023-03-31T07:58:42;25.63;;;4.13;;
49828;SDS011;35723;51.194;5.112;2023-03-31T08:01:09;27.02;;;4.28;;
49828;SDS011;35723;51.194;5.112;2023-03-31T08:03:40;28.55;;;4.35;;
49828;SDS011;35723;51.194;5.112;2023-03-31T08:06:06;30.45;;;4.00;;
49828;SDS011;35723;51.194;5.112;2023-03-31T08:08:32;22.88;;;4.00;;
49828;SDS011;35723;51.194;5.112;2023-03-31T08:10:58;26.17;;;4.43;;
49828;SDS011;35723;51.194;5.112;2023-03-31T08:13:24;21.92;;;3.83;;
49828;SDS011;35723;51.194;5.112;2023-03-31T08:15:50;21.30;;;3.42;;
49828;SDS011;35723;51.194;5.112;2023-03-31T08:18:16;24.77;;;3.90;;
49828;SDS011;35723;51.194;5.112;2023-03-31T08:20:41;22.85;;;4.05;;
49828;SDS011;35723;51.194;5.112;2023-03-31T08:23:07;24.52;;;3.97;;
49828;SDS011;35723;51.194;5.112;2023-03-31T08:25:35;27.55;;;3.72;;
49828;SDS011;35723;51.194;5.112;2023-03-31T08:28:02;26.40;;;3.38;;
49828;SDS011;35723;51.194;5.112;2023-03-31T08:30:27;25.80;;;3.78;;
49828;SDS011;35723;51.194;5.112;2023-03-31T08:32:53;25.55;;;4.80;;
49828;SDS011;35723;51.194;5.112;2023-03-31T08:35:19;24.17;;;3.90;;
49828;SDS011;35723;51.194;5.112;2023-03-31T08:37:45;22.35;;;3.72;;
49828;SDS011;35723;51.194;5.112;2023-03-31T08:40:13;29.00;;;4.05;;
49828;SDS011;35723;51.194;5.112;2023-03-31T08:42:44;21.93;;;3.60;;
49828;SDS011;35723;51.194;5.112;2023-03-31T08:47:48;29.52;;;4.35;;
49828;SDS011;35723;51.194;5.112;2023-03-31T08:50:22;28.58;;;4.10;;
49828;SDS011;35723;51.194;5.112;2023-03-31T08:55:50;26.98;;;4.03;;
49828;SDS011;35723;51.194;5.112;2023-03-31T08:58:24;24.92;;;4.20;;
49828;SDS011;35723;51.194;5.112;2023-03-31T09:12:20;24.35;;;3.72;;
49828;SDS011;35723;51.194;5.112;2023-03-31T09:14:57;19.77;;;3.55;;
49828;SDS011;35723;51.194;5.112;2023-03-31T09:18:01;22.67;;;3.58;;
49828;SDS011;35723;51.194;5.112;2023-03-31T09:25:34;20.08;;;3.25;;
49828;SDS011;35723;51.194;5.112;2023-03-31T09:28:02;18.35;;;3.17;;
49828;SDS011;35723;51.194;5.112;2023-03-31T09:30:31;17.48;;;2.97;;
49828;SDS011;35723;51.194;5.112;2023-03-31T09:33:08;18.63;;;3.22;;
49828;SDS011;35723;51.194;5.112;2023-03-31T09:35:36;17.33;;;2.80;;
49828;SDS011;35723;51.194;5.112;2023-03-31T09:38:02;26.58;;;3.70;;
49828;SDS011;35723;51.194;5.112;2023-03-31T09:40:28;16.38;;;3.28;;
49828;SDS011;35723;51.194;5.112;2023-03-31T09:42:58;25.00;;;3.78;;
49828;SDS011;35723;51.194;5.112;2023-03-31T09:45:43;16.27;;;2.90;;
49828;SDS011;35723;51.194;5.112;2023-03-31T09:48:10;18.08;;;3.00;;
49828;SDS011;35723;51.194;5.112;2023-03-31T09:50:43;21.73;;;3.22;;
49828;SDS011;35723;51.194;5.112;2023-03-31T09:53:20;17.80;;;2.58;;
49828;SDS011;35723;51.194;5.112;2023-03-31T09:55:54;15.82;;;2.90;;
49828;SDS011;35723;51.194;5.112;2023-03-31T09:58:24;18.85;;;3.72;;
49828;SDS011;35723;51.194;5.112;2023-03-31T10:01:01;18.30;;;2.85;;
49828;SDS011;35723;51.194;5.112;2023-03-31T10:03:30;17.50;;;2.63;;
49828;SDS011;35723;51.194;5.112;2023-03-31T10:06:01;16.33;;;2.90;;
49828;SDS011;35723;51.194;5.112;2023-03-31T10:11:25;17.23;;;2.95;;
49828;SDS011;35723;51.194;5.112;2023-03-31T10:13:52;19.30;;;3.42;;
49828;SDS011;35723;51.194;5.112;2023-03-31T10:16:32;17.13;;;3.03;;
49828;SDS011;35723;51.194;5.112;2023-03-31T10:19:17;21.23;;;3.22;;
49828;SDS011;35723;51.194;5.112;2023-03-31T10:21:54;22.50;;;3.80;;
49828;SDS011;35723;51.194;5.112;2023-03-31T10:24:36;29.70;;;3.45;;
49828;SDS011;35723;51.194;5.112;2023-03-31T10:27:04;21.38;;;3.10;;
49828;SDS011;35723;51.194;5.112;2023-03-31T10:29:31;20.35;;;3.67;;
49828;SDS011;35723;51.194;5.112;2023-03-31T10:32:07;20.95;;;3.30;;
49828;SDS011;35723;51.194;5.112;2023-03-31T10:34:40;22.25;;;3.40;;
49828;SDS011;35723;51.194;5.112;2023-03-31T10:37:06;19.73;;;3.05;;
49828;SDS011;35723;51.194;5.112;2023-03-31T10:39:47;18.60;;;3.40;;
49828;SDS011;35723;51.194;5.112;2023-03-31T10:42:21;23.30;;;3.22;;
49828;SDS011;35723;51.194;5.112;2023-03-31T10:44:47;21.60;;;3.55;;
49828;SDS011;35723;51.194;5.112;2023-03-31T10:49:47;23.67;;;3.90;;
49828;SDS011;35723;51.194;5.112;2023-03-31T10:52:17;21.90;;;3.53;;
49828;SDS011;35723;51.194;5.112;2023-03-31T10:54:56;21.23;;;3.40;;
49828;SDS011;35723;51.194;5.112;2023-03-31T11:02:59;24.00;;;3.83;;
49828;SDS011;35723;51.194;5.112;2023-03-31T11:10:59;25.60;;;3.70;;
49828;SDS011;35723;51.194;5.112;2023-03-31T11:14:00;21.42;;;3.35;;
49828;SDS011;35723;51.194;5.112;2023-03-31T11:17:32;25.50;;;3.63;;
49828;SDS011;35723;51.194;5.112;2023-03-31T11:25:21;23.15;;;3.90;;
49828;SDS011;35723;51.194;5.112;2023-03-31T11:30:45;18.10;;;2.92;;
49828;SDS011;35723;51.194;5.112;2023-03-31T11:42:34;17.42;;;3.13;;
49828;SDS011;35723;51.194;5.112;2023-03-31T11:45:15;22.63;;;3.00;;
49828;SDS011;35723;51.194;5.112;2023-03-31T11:47:45;17.58;;;2.72;;
49828;SDS011;35723;51.194;5.112;2023-03-31T11:50:17;18.70;;;2.88;;
49828;SDS011;35723;51.194;5.112;2023-03-31T11:53:32;20.40;;;3.30;;
49828;SDS011;35723;51.194;5.112;2023-03-31T11:55:39;19.55;;;3.28;;
49828;SDS011;35723;51.194;5.112;2023-03-31T11:58:07;20.23;;;3.35;;
49828;SDS011;35723;51.194;5.112;2023-03-31T12:00:40;21.50;;;3.63;;
49828;SDS011;35723;51.194;5.112;2023-03-31T12:03:12;22.67;;;3.45;;
49828;SDS011;35723;51.194;5.112;2023-03-31T12:05:46;21.48;;;3.53;;
49828;SDS011;35723;51.194;5.112;2023-03-31T12:10:53;22.92;;;3.72;;
49828;SDS011;35723;51.194;5.112;2023-03-31T12:21:29;16.95;;;2.78;;
49828;SDS011;35723;51.194;5.112;2023-03-31T12:23:58;19.75;;;2.90;;
49828;SDS011;35723;51.194;5.112;2023-03-31T12:31:56;17.00;;;2.65;;
49828;SDS011;35723;51.194;5.112;2023-03-31T12:34:25;18.58;;;2.95;;
49828;SDS011;35723;51.194;5.112;2023-03-31T12:42:27;22.13;;;3.05;;
49828;SDS011;35723;51.194;5.112;2023-03-31T12:54:35;15.52;;;2.70;;
49828;SDS011;35723;51.194;5.112;2023-03-31T12:57:19;16.30;;;2.90;;
49828;SDS011;35723;51.194;5.112;2023-03-31T13:00:08;19.63;;;2.97;;
49828;SDS011;35723;51.194;5.112;2023-03-31T13:02:36;19.85;;;3.03;;
49828;SDS011;35723;51.194;5.112;2023-03-31T13:05:39;18.15;;;2.90;;
49828;SDS011;35723;51.194;5.112;2023-03-31T13:08:11;17.75;;;2.83;;
49828;SDS011;35723;51.194;5.112;2023-03-31T13:11:15;14.57;;;2.40;;
49828;SDS011;35723;51.194;5.112;2023-03-31T13:16:30;18.65;;;2.75;;
49828;SDS011;35723;51.194;5.112;2023-03-31T13:18:57;17.35;;;2.58;;
49828;SDS011;35723;51.194;5.112;2023-03-31T13:21:23;13.77;;;2.97;;
49828;SDS011;35723;51.194;5.112;2023-03-31T13:23:49;18.35;;;3.00;;
49828;SDS011;35723;51.194;5.112;2023-03-31T13:34:35;12.63;;;1.90;;
49828;SDS011;35723;51.194;5.112;2023-03-31T13:37:09;10.82;;;1.65;;
49828;SDS011;35723;51.194;5.112;2023-03-31T13:42:29;11.70;;;2.00;;
49828;SDS011;35723;51.194;5.112;2023-03-31T13:45:41;11.18;;;1.92;;
49828;SDS011;35723;51.194;5.112;2023-03-31T14:07:27;7.55;;;1.08;;
49828;SDS011;35723;51.194;5.112;2023-03-31T14:10:05;22.25;;;2.35;;
49828;SDS011;35723;51.194;5.112;2023-03-31T14:12:45;5.97;;;0.90;;
49828;SDS011;35723;51.194;5.112;2023-03-31T14:15:17;9.13;;;1.23;;
49828;SDS011;35723;51.194;5.112;2023-03-31T14:17:44;4.78;;;0.88;;
49828;SDS011;35723;51.194;5.112;2023-03-31T14:23:00;4.85;;;1.23;;
49828;SDS011;35723;51.194;5.112;2023-03-31T14:36:14;9.98;;;2.28;;
49828;SDS011;35723;51.194;5.112;2023-03-31T14:38:49;4.82;;;1.00;;
49828;SDS011;35723;51.194;5.112;2023-03-31T14:41:19;6.28;;;1.20;;
49828;SDS011;35723;51.194;5.112;2023-03-31T14:43:53;6.47;;;1.02;;
49828;SDS011;35723;51.194;5.112;2023-03-31T14:46:21;4.65;;;0.88;;
49828;SDS011;35723;51.194;5.112;2023-03-31T14:48:48;3.10;;;0.80;;
49828;SDS011;35723;51.194;5.112;2023-03-31T14:51:16;4.72;;;1.17;;
49828;SDS011;35723;51.194;5.112;2023-03-31T14:54:00;7.82;;;1.17;;
49828;SDS011;35723;51.194;5.112;2023-03-31T14:56:33;8.45;;;1.50;;
49828;SDS011;35723;51.194;5.112;2023-03-31T14:59:03;4.47;;;1.30;;
49828;SDS011;35723;51.194;5.112;2023-03-31T15:01:31;7.85;;;1.42;;
49828;SDS011;35723;51.194;5.112;2023-03-31T15:04:05;4.25;;;0.98;;
49828;SDS011;35723;51.194;5.112;2023-03-31T15:06:34;5.38;;;1.10;;
49828;SDS011;35723;51.194;5.112;2023-03-31T15:09:04;6.07;;;1.13;;
49828;SDS011;35723;51.194;5.112;2023-03-31T15:11:30;3.50;;;0.88;;
49828;SDS011;35723;51.194;5.112;2023-03-31T15:13:57;2.42;;;0.82;;
49828;SDS011;35723;51.194;5.112;2023-03-31T15:16:33;4.00;;;0.90;;
49828;SDS011;35723;51.194;5.112;2023-03-31T15:19:40;3.17;;;0.85;;
49828;SDS011;35723;51.194;5.112;2023-03-31T15:22:10;2.63;;;0.80;;
49828;SDS011;35723;51.194;5.112;2023-03-31T15:24:38;5.03;;;0.90;;
49828;SDS011;35723;51.194;5.112;2023-03-31T15:27:23;3.17;;;0.75;;
49828;SDS011;35723;51.194;5.112;2023-03-31T15:29:52;3.78;;;0.93;;
49828;SDS011;35723;51.194;5.112;2023-03-31T15:32:26;5.70;;;1.35;;
49828;SDS011;35723;51.194;5.112;2023-03-31T15:34:55;4.38;;;0.93;;
49828;SDS011;35723;51.194;5.112;2023-03-31T15:37:28;5.70;;;0.90;;
49828;SDS011;35723;51.194;5.112;2023-03-31T15:39:59;2.75;;;0.95;;
49828;SDS011;35723;51.194;5.112;2023-03-31T15:42:27;5.95;;;0.90;;
49828;SDS011;35723;51.194;5.112;2023-03-31T15:44:54;2.83;;;0.60;;
49828;SDS011;35723;51.194;5.112;2023-03-31T15:47:26;5.05;;;1.15;;
49828;SDS011;35723;51.194;5.112;2023-03-31T15:50:28;2.88;;;0.77;;
49828;SDS011;35723;51.194;5.112;2023-03-31T15:52:52;3.28;;;0.75;;
49828;SDS011;35723;51.194;5.112;2023-03-31T15:57:48;3.10;;;1.05;;
49828;SDS011;35723;51.194;5.112;2023-03-31T16:02:56;4.25;;;1.45;;
49828;SDS011;35723;51.194;5.112;2023-03-31T16:08:03;6.22;;;1.42;;
49828;SDS011;35723;51.194;5.112;2023-03-31T16:10:34;4.82;;;1.10;;
49828;SDS011;35723;51.194;5.112;2023-03-31T16:13:05;5.65;;;1.20;;
49828;SDS011;35723;51.194;5.112;2023-03-31T16:15:36;6.43;;;1.23;;
49828;SDS011;35723;51.194;5.112;2023-03-31T16:18:29;6.88;;;1.65;;
49828;SDS011;35723;51.194;5.112;2023-03-31T16:20:53;7.88;;;1.40;;
49828;SDS011;35723;51.194;5.112;2023-03-31T16:23:22;5.03;;;1.40;;
49828;SDS011;35723;51.194;5.112;2023-03-31T16:25:50;4.32;;;0.95;;
49828;SDS011;35723;51.194;5.112;2023-03-31T16:28:35;5.10;;;1.17;;
49828;SDS011;35723;51.194;5.112;2023-03-31T16:31:02;4.47;;;1.33;;
49828;SDS011;35723;51.194;5.112;2023-03-31T16:33:29;7.88;;;1.40;;
49828;SDS011;35723;51.194;5.112;2023-03-31T16:36:15;5.97;;;1.10;;
49828;SDS011;35723;51.194;5.112;2023-03-31T16:38:41;7.03;;;1.42;;
49828;SDS011;35723;51.194;5.112;2023-03-31T16:41:07;5.05;;;1.02;;
49828;SDS011;35723;51.194;5.112;2023-03-31T16:43:32;4.70;;;1.20;;
49828;SDS011;35723;51.194;5.112;2023-03-31T16:45:59;5.05;;;1.25;;
49828;SDS011;35723;51.194;5.112;2023-03-31T16:48:30;5.40;;;1.25;;
49828;SDS011;35723;51.194;5.112;2023-03-31T16:50:58;5.25;;;1.50;;
49828;SDS011;35723;51.194;5.112;2023-03-31T16:53:31;7.07;;;1.60;;
49828;SDS011;35723;51.194;5.112;2023-03-31T16:55:58;7.70;;;1.52;;
49828;SDS011;35723;51.194;5.112;2023-03-31T16:58:25;5.13;;;1.35;;
49828;SDS011;35723;51.194;5.112;2023-03-31T17:00:54;8.45;;;1.30;;
49828;SDS011;35723;51.194;5.112;2023-03-31T17:03:20;5.63;;;1.10;;
49828;SDS011;35723;51.194;5.112;2023-03-31T17:05:48;7.30;;;1.67;;
49828;SDS011;35723;51.194;5.112;2023-03-31T17:08:17;7.40;;;1.77;;
49828;SDS011;35723;51.194;5.112;2023-03-31T17:10:49;9.10;;;2.08;;
49828;SDS011;35723;51.194;5.112;2023-03-31T17:13:20;6.38;;;1.77;;
49828;SDS011;35723;51.194;5.112;2023-03-31T17:15:46;11.65;;;1.90;;
49828;SDS011;35723;51.194;5.112;2023-03-31T17:18:12;8.63;;;2.10;;
49828;SDS011;35723;51.194;5.112;2023-03-31T17:20:39;6.35;;;1.70;;
49828;SDS011;35723;51.194;5.112;2023-03-31T17:23:05;9.55;;;1.83;;
49828;SDS011;35723;51.194;5.112;2023-03-31T17:25:31;10.13;;;1.90;;
49828;SDS011;35723;51.194;5.112;2023-03-31T17:27:58;10.32;;;2.25;;
49828;SDS011;35723;51.194;5.112;2023-03-31T17:30:25;13.07;;;2.15;;
49828;SDS011;35723;51.194;5.112;2023-03-31T17:32:51;11.77;;;1.90;;
49828;SDS011;35723;51.194;5.112;2023-03-31T17:35:17;11.43;;;2.55;;
49828;SDS011;35723;51.194;5.112;2023-03-31T17:37:49;12.57;;;1.83;;
49828;SDS011;35723;51.194;5.112;2023-03-31T17:40:19;10.25;;;2.30;;
49828;SDS011;35723;51.194;5.112;2023-03-31T17:42:46;12.05;;;2.28;;
49828;SDS011;35723;51.194;5.112;2023-03-31T17:45:12;12.75;;;2.35;;
49828;SDS011;35723;51.194;5.112;2023-03-31T17:47:38;9.10;;;1.95;;
49828;SDS011;35723;51.194;5.112;2023-03-31T17:50:04;13.50;;;2.22;;
49828;SDS011;35723;51.194;5.112;2023-03-31T17:52:30;14.35;;;2.30;;
49828;SDS011;35723;51.194;5.112;2023-03-31T17:54:57;10.45;;;2.00;;
49828;SDS011;35723;51.194;5.112;2023-03-31T17:57:23;12.02;;;2.30;;
49828;SDS011;35723;51.194;5.112;2023-03-31T17:59:48;9.07;;;1.77;;
49828;SDS011;35723;51.194;5.112;2023-03-31T18:02:14;10.32;;;2.03;;
49828;SDS011;35723;51.194;5.112;2023-03-31T18:04:40;19.80;;;2.30;;
49828;SDS011;35723;51.194;5.112;2023-03-31T18:07:06;9.23;;;1.65;;